Time;durP1;ratioP1;P1;durP2;ratioP2;P2;SDS_P1;SDS_P2;PMS_P1;PMS_P2;Temp;Humidity;BMP_temperature;BMP_pressure;BME280_temperature;BME280_humidity;BME280_pressure;Samples;Min_cycle;Max_cycle;Signal;HPM_P1;HPM_P2
2022/08/28 00:01:59;;;;;;;8.40;6.97;;;;;;;18.28;100.00;99481.94;5000331;28;20042;-81
2022/08/28 00:04:26;;;;;;;11.48;7.65;;;;;;;18.33;100.00;99484.00;4989142;28;20417;-81
2022/08/28 00:06:51;;;;;;;9.90;7.38;;;;;;;18.34;100.00;99473.53;4997621;28;20038;-81
2022/08/28 00:09:17;;;;;;;8.73;6.88;;;;;;;18.33;100.00;99478.38;4995456;28;21897;-81
2022/08/28 00:11:43;;;;;;;9.85;6.82;;;;;;;18.33;100.00;99467.16;4998711;28;20045;-81
2022/08/28 00:14:09;;;;;;;8.60;7.05;;;;;;;18.35;100.00;99467.44;4986734;28;20038;-81
2022/08/28 00:16:35;;;;;;;9.50;6.68;;;;;;;18.37;100.00;99467.69;4997699;28;20034;-81
2022/08/28 00:19:00;;;;;;;9.73;7.05;;;;;;;18.42;100.00;99464.13;4984597;28;20558;-81
2022/08/28 00:21:27;;;;;;;11.95;6.70;;;;;;;18.41;100.00;99478.66;4983086;28;20049;-81
2022/08/28 00:23:53;;;;;;;9.07;7.63;;;;;;;18.47;100.00;99477.44;4977944;28;20042;-81
2022/08/28 00:29:05;;;;;;;10.00;6.82;;;;;;;18.47;100.00;99466.22;4990250;28;20048;-81
2022/08/28 00:31:31;;;;;;;9.90;7.65;;;;;;;18.40;100.00;99469.47;4982652;28;20029;-81
2022/08/28 00:33:57;;;;;;;7.55;6.70;;;;;;;18.49;100.00;99469.25;5001762;28;20042;-80
2022/08/28 00:36:23;;;;;;;9.50;6.93;;;;;;;18.46;100.00;99463.91;4976917;28;20046;-81
2022/08/28 00:38:49;;;;;;;11.25;7.35;;;;;;;18.38;100.00;99465.66;4998511;28;20038;-81
2022/08/28 00:41:15;;;;;;;8.82;7.47;;;;;;;18.35;100.00;99461.81;4995037;28;20034;-80
2022/08/28 00:43:43;;;;;;;10.02;7.35;;;;;;;18.41;100.00;99461.81;4995622;28;20489;-81
2022/08/28 00:46:18;;;;;;;11.52;6.85;;;;;;;18.34;100.00;99449.03;5002578;28;20081;-80
2022/08/28 00:48:44;;;;;;;9.60;7.25;;;;;;;18.37;100.00;99456.44;4996148;28;20074;-81
2022/08/28 00:53:56;;;;;;;7.85;7.05;;;;;;;18.35;100.00;99464.63;4982518;28;20565;-81
2022/08/28 00:56:22;;;;;;;9.90;6.65;;;;;;;18.36;100.00;99454.91;4983192;28;20046;-81
2022/08/28 00:58:50;;;;;;;9.80;7.20;;;;;;;18.38;100.00;99468.44;4993886;28;20096;-81
2022/08/28 01:03:53;;;;;;;8.48;7.18;;;;;;;18.26;100.00;99448.00;5014583;22;20093;-83
2022/08/28 01:06:21;;;;;;;10.75;7.65;;;;;;;18.29;100.00;99452.59;4982343;28;20054;-83
2022/08/28 01:08:47;;;;;;;11.25;7.63;;;;;;;18.25;100.00;99466.09;4968820;28;20038;-84
2022/08/28 01:11:13;;;;;;;9.20;7.00;;;;;;;18.30;100.00;99464.59;4969147;28;20058;-84
2022/08/28 01:13:45;;;;;;;10.70;7.45;;;;;;;18.28;100.00;99459.47;4966091;28;20042;-84
2022/08/28 01:16:12;;;;;;;7.65;6.70;;;;;;;18.30;100.00;99459.75;4985539;28;20190;-83
2022/08/28 01:18:39;;;;;;;10.57;7.50;;;;;;;18.27;100.00;99457.97;4953127;28;20536;-83
2022/08/28 01:21:13;;;;;;;7.72;6.90;;;;;;;18.18;100.00;99453.31;4981513;28;20098;-83
2022/08/28 01:23:55;;;;;;;9.32;7.15;;;;;;;18.16;100.00;99452.25;4968125;28;20089;-83
2022/08/28 01:26:21;;;;;;;8.48;7.00;;;;;;;18.24;100.00;99467.38;4969168;28;20042;-83
2022/08/28 01:28:47;;;;;;;9.75;7.28;;;;;;;18.29;100.00;99463.03;4972153;28;20043;-84
2022/08/28 01:31:14;;;;;;;10.95;7.38;;;;;;;18.17;100.00;99453.81;4952040;28;20069;-83
2022/08/28 01:33:41;;;;;;;9.63;7.10;;;;;;;18.25;100.00;99463.28;4986610;28;20047;-83
2022/08/28 01:36:06;;;;;;;8.45;7.30;;;;;;;18.22;100.00;99461.50;4961391;28;20564;-84
2022/08/28 01:38:32;;;;;;;11.98;7.63;;;;;;;18.24;100.00;99470.16;4983230;28;20137;-84
2022/08/28 01:40:58;;;;;;;12.45;7.63;;;;;;;18.19;100.00;99470.94;4993034;28;20520;-84
2022/08/28 01:43:25;;;;;;;10.82;6.93;;;;;;;18.17;100.00;99476.25;4987084;28;20379;-84
2022/08/28 01:45:56;;;;;;;11.18;7.32;;;;;;;18.17;100.00;99476.25;4986628;28;20039;-84
2022/08/28 01:48:24;;;;;;;11.20;6.50;;;;;;;18.14;100.00;99475.25;4978307;28;20050;-84
2022/08/28 01:50:49;;;;;;;9.98;7.45;;;;;;;18.15;100.00;99484.44;4981195;28;20050;-84
2022/08/28 01:53:17;;;;;;;9.93;6.93;;;;;;;18.14;100.00;99482.88;4969174;28;20057;-83
2022/08/28 01:55:43;;;;;;;8.27;6.70;;;;;;;18.12;100.00;99485.41;4967978;28;20539;-84
2022/08/28 01:58:10;;;;;;;8.35;6.78;;;;;;;18.06;100.00;99482.59;4984108;28;20166;-84
2022/08/28 02:00:35;;;;;;;7.47;6.20;;;;;;;18.06;100.00;99476.22;4979625;28;20062;-83
2022/08/28 02:03:02;;;;;;;8.27;6.28;;;;;;;18.07;100.00;99483.38;4958544;28;20510;-83
2022/08/28 02:05:31;;;;;;;8.43;6.90;;;;;;;18.02;100.00;99484.88;4978766;28;20050;-84
2022/08/28 02:07:58;;;;;;;10.85;6.85;;;;;;;17.96;100.00;99486.09;4979697;28;20039;-84
2022/08/28 02:10:25;;;;;;;10.02;6.90;;;;;;;18.02;100.00;99486.91;4972094;28;20503;-84
2022/08/28 02:12:52;;;;;;;10.77;7.40;;;;;;;17.99;100.00;99493.53;4978620;28;20062;-84
2022/08/28 02:15:17;;;;;;;8.23;6.90;;;;;;;17.99;100.00;99482.31;4986456;28;20058;-84
2022/08/28 02:17:43;;;;;;;9.88;7.25;;;;;;;17.95;100.00;99487.38;4971531;28;20042;-84
2022/08/28 02:20:09;;;;;;;9.73;7.35;;;;;;;17.92;100.00;99483.53;4973327;28;20039;-84
2022/08/28 02:22:35;;;;;;;11.02;7.30;;;;;;;17.97;100.00;99490.44;4979712;28;20137;-84
2022/08/28 02:25:00;;;;;;;9.18;7.30;;;;;;;17.91;100.00;99498.06;4968890;28;20407;-84
2022/08/28 02:27:26;;;;;;;9.23;6.97;;;;;;;17.90;100.00;99497.28;4974341;28;20109;-84
2022/08/28 02:29:51;;;;;;;9.27;7.25;;;;;;;17.95;100.00;99504.22;4974349;28;20387;-84
2022/08/28 02:32:17;;;;;;;16.50;7.93;;;;;;;17.84;100.00;99495.69;4980244;28;20563;-84
2022/08/28 02:34:43;;;;;;;7.80;7.00;;;;;;;17.91;100.00;99500.88;4975529;28;20047;-84
2022/08/28 02:37:12;;;;;;;8.45;7.55;;;;;;;17.84;100.00;99498.50;4971284;28;20026;-84
2022/08/28 02:39:38;;;;;;;9.10;6.97;;;;;;;17.82;100.00;99506.66;4976946;28;20042;-84
2022/08/28 02:42:04;;;;;;;8.65;6.85;;;;;;;17.83;100.00;99513.81;4980099;28;20042;-84
2022/08/28 02:44:29;;;;;;;10.57;7.10;;;;;;;17.81;100.00;99513.53;4971716;28;20078;-84
2022/08/28 02:46:55;;;;;;;10.30;7.80;;;;;;;17.84;100.00;99510.50;4979071;28;20038;-84
2022/08/28 02:49:22;;;;;;;12.27;7.32;;;;;;;17.82;100.00;99506.66;4982754;28;20038;-84
2022/08/28 02:51:49;;;;;;;9.50;7.03;;;;;;;17.81;100.00;99517.13;4976180;28;20125;-84
2022/08/28 02:54:15;;;;;;;8.77;7.38;;;;;;;17.78;100.00;99529.34;4970633;28;20489;-84
2022/08/28 02:56:40;;;;;;;11.00;7.53;;;;;;;17.78;100.00;99522.97;4969310;28;20098;-84
2022/08/28 02:59:06;;;;;;;10.75;7.38;;;;;;;17.73;100.00;99520.88;4971079;28;20549;-84
2022/08/28 03:01:32;;;;;;;8.45;7.35;;;;;;;17.75;100.00;99521.16;4974184;28;20295;-84
2022/08/28 03:04:01;;;;;;;13.13;8.38;;;;;;;17.63;100.00;99515.44;4975493;28;20089;-84
2022/08/28 03:06:28;;;;;;;13.68;9.15;;;;;;;17.47;100.00;99510.44;4972617;28;20494;-84
2022/08/28 03:08:54;;;;;;;12.52;8.55;;;;;;;17.44;100.00;99508.63;4971282;28;20043;-84
2022/08/28 03:11:20;;;;;;;11.57;8.40;;;;;;;17.46;100.00;99519.38;4977288;28;20050;-84
2022/08/28 03:13:45;;;;;;;10.10;8.48;;;;;;;17.43;100.00;99521.09;4969330;28;20042;-84
2022/08/28 03:16:11;;;;;;;11.93;8.57;;;;;;;17.40;100.00;99516.50;4970597;28;20134;-84
2022/08/28 03:18:37;;;;;;;9.93;8.13;;;;;;;17.46;100.00;99520.13;4954369;28;20050;-84
2022/08/28 03:21:03;;;;;;;13.38;7.95;;;;;;;17.44;100.00;99517.03;4975047;28;20039;-84
2022/08/28 03:23:30;;;;;;;10.57;8.18;;;;;;;17.45;100.00;99515.78;4967615;28;20069;-84
2022/08/28 03:26:07;;;;;;;12.55;8.60;;;;;;;17.49;100.00;99524.75;4965611;28;20079;-84
2022/08/28 03:28:48;;;;;;;10.75;8.27;;;;;;;17.45;100.00;99510.19;4976729;28;20394;-84
2022/08/28 03:31:17;;;;;;;13.65;8.20;;;;;;;17.51;100.00;99516.59;4966567;28;20474;-84
2022/08/28 03:33:44;;;;;;;9.88;7.63;;;;;;;17.48;100.00;99523.19;4998198;28;20110;-84
2022/08/28 03:36:13;;;;;;;11.15;8.10;;;;;;;17.47;100.00;99504.81;4973657;28;20039;-84
2022/08/28 03:38:40;;;;;;;13.73;8.02;;;;;;;17.45;100.00;99509.41;4967948;28;20035;-84
2022/08/28 03:41:11;;;;;;;11.02;7.75;;;;;;;17.38;100.00;99507.84;4966521;28;20039;-84
2022/08/28 03:43:38;;;;;;;9.40;7.43;;;;;;;17.38;100.00;99504.25;4971593;28;20055;-84
2022/08/28 03:46:05;;;;;;;10.55;7.70;;;;;;;17.42;100.00;99502.78;4970580;28;20050;-84
2022/08/28 03:48:35;;;;;;;12.27;8.05;;;;;;;17.39;100.00;99512.16;4975376;28;20046;-84
2022/08/28 03:51:01;;;;;;;13.98;8.55;;;;;;;17.25;100.00;99510.25;4973021;28;20459;-84
2022/08/28 03:53:28;;;;;;;10.50;8.48;;;;;;;17.27;100.00;99507.72;4974706;28;20920;-84
2022/08/28 03:55:54;;;;;;;10.85;8.32;;;;;;;17.27;100.00;99513.31;4969113;28;20043;-84
2022/08/28 03:58:21;;;;;;;11.45;8.52;;;;;;;17.22;100.00;99508.44;4974896;28;20118;-84
2022/08/28 04:00:48;;;;;;;11.60;8.60;;;;;;;17.16;100.00;99502.00;4979706;28;20042;-84
2022/08/28 04:03:14;;;;;;;11.68;8.88;;;;;;;17.13;100.00;99497.41;4979988;28;20050;-84
2022/08/28 04:05:44;;;;;;;11.80;9.07;;;;;;;17.15;100.00;99495.63;4971210;28;20061;-84
2022/08/28 04:08:15;;;;;;;10.32;8.23;;;;;;;17.18;100.00;99502.28;4968979;28;20626;-84
2022/08/28 04:10:42;;;;;;;10.70;7.85;;;;;;;17.21;100.00;99498.50;4972457;28;20102;-84
2022/08/28 04:13:09;;;;;;;13.77;8.73;;;;;;;17.27;100.00;99509.75;4971979;28;20038;-84
2022/08/28 04:15:35;;;;;;;10.27;7.82;;;;;;;17.31;100.00;99513.13;4972406;28;20042;-84
2022/08/28 04:18:00;;;;;;;10.57;7.40;;;;;;;17.38;100.00;99519.03;4973903;28;20038;-85
2022/08/28 04:20:26;;;;;;;9.18;6.75;;;;;;;17.38;100.00;99518.28;4974034;28;20074;-85
2022/08/28 04:22:52;;;;;;;9.27;7.75;;;;;;;17.24;100.00;99503.09;4972180;28;20051;-85
2022/08/28 04:25:18;;;;;;;8.73;7.25;;;;;;;17.31;100.00;99516.66;4968613;28;20054;-85
2022/08/28 04:27:43;;;;;;;10.70;6.60;;;;;;;17.35;100.00;99520.00;4973977;28;20505;-85
2022/08/28 04:30:10;;;;;;;9.25;7.15;;;;;;;17.42;100.00;99525.19;4972432;28;20047;-85
2022/08/28 04:32:36;;;;;;;8.05;6.90;;;;;;;17.48;100.00;99514.78;4985223;28;20640;-84
2022/08/28 04:35:04;;;;;;;9.45;6.90;;;;;;;17.54;100.00;99515.63;4985727;28;20053;-84
2022/08/28 04:37:30;;;;;;;9.55;6.78;;;;;;;17.56;100.00;99521.47;4971923;28;20125;-84
2022/08/28 04:39:56;;;;;;;8.93;6.93;;;;;;;17.57;100.00;99531.47;4978027;28;20170;-84
2022/08/28 04:42:21;;;;;;;9.93;7.40;;;;;;;17.61;100.00;99532.00;4971874;28;20109;-85
2022/08/28 04:44:47;;;;;;;14.90;7.65;;;;;;;17.63;100.00;99540.69;4972483;28;20101;-84
2022/08/28 04:47:12;;;;;;;11.80;7.68;;;;;;;17.61;100.00;99548.84;4973414;28;20414;-84
2022/08/28 04:49:38;;;;;;;9.02;7.90;;;;;;;17.62;100.00;99553.19;4970166;28;20517;-85
2022/08/28 04:52:03;;;;;;;10.02;8.00;;;;;;;17.69;100.00;99554.75;4976313;28;20047;-85
2022/08/28 04:54:33;;;;;;;10.73;8.23;;;;;;;17.70;100.00;99551.47;4974496;28;20050;-85
2022/08/28 04:57:00;;;;;;;10.85;8.70;;;;;;;17.68;100.00;99548.38;4983720;28;20045;-85
2022/08/28 04:59:26;;;;;;;9.23;8.15;;;;;;;17.76;100.00;99551.50;4967688;28;20054;-85
2022/08/28 05:01:51;;;;;;;12.68;8.18;;;;;;;17.84;100.00;99554.63;4978629;28;20674;-84
2022/08/28 05:04:18;;;;;;;10.60;8.05;;;;;;;17.90;100.00;99550.59;4985873;28;20101;-84
2022/08/28 05:06:45;;;;;;;10.20;8.25;;;;;;;17.95;100.00;99565.94;4987250;28;20034;-84
2022/08/28 05:09:15;;;;;;;11.23;8.00;;;;;;;18.04;100.00;99560.13;4973018;28;20085;-84
2022/08/28 05:11:41;;;;;;;13.45;8.73;;;;;;;18.14;100.00;99567.88;4982278;28;20130;-84
2022/08/28 05:14:08;;;;;;;9.70;8.00;;;;;;;18.25;100.00;99566.38;4982471;28;20535;-85
2022/08/28 05:16:49;;;;;;;10.05;7.88;;;;;;;18.33;100.00;99573.84;4980105;28;20113;-85
2022/08/28 05:19:16;;;;;;;10.65;7.85;;;;;;;18.39;100.00;99574.66;4972599;28;20541;-84
2022/08/28 05:21:41;;;;;;;11.45;7.40;;;;;;;18.50;100.00;99577.53;4979140;28;20505;-84
2022/08/28 05:24:07;;;;;;;11.50;8.30;;;;;;;18.61;100.00;99574.03;4984733;28;20074;-84
2022/08/28 05:26:33;;;;;;;11.35;7.22;;;;;;;18.71;100.00;99589.41;4981092;28;20092;-85
2022/08/28 05:28:59;;;;;;;9.15;7.28;;;;;;;18.86;100.00;99592.03;4983689;28;20397;-84
2022/08/28 05:31:25;;;;;;;8.52;7.20;;;;;;;19.01;100.00;99592.59;4986623;28;20454;-85
2022/08/28 05:33:52;;;;;;;11.10;6.63;;;;;;;18.96;100.00;99596.16;4968841;28;20509;-85
2022/08/28 05:36:20;;;;;;;8.60;6.90;;;;;;;18.83;100.00;99593.03;4975958;28;20046;-85
2022/08/28 05:38:47;;;;;;;11.73;6.45;;;;;;;18.93;100.00;99597.16;4980700;28;20042;-85
2022/08/28 05:41:21;;;;;;;9.52;6.82;;;;;;;19.08;100.00;99592.13;4978491;28;20046;-85
2022/08/28 05:43:46;;;;;;;7.75;6.18;;;;;;;19.30;100.00;99603.41;4974077;28;20430;-86
2022/08/28 05:46:14;;;;;;;9.25;6.88;;;;;;;19.41;100.00;99609.06;4977500;28;20042;-87
2022/08/28 05:48:41;;;;;;;11.13;6.28;;;;;;;19.27;100.00;99617.72;4981291;28;20046;-86
2022/08/28 05:51:08;;;;;;;8.77;5.50;;;;;;;19.29;100.00;99618.00;4982185;28;20049;-87
2022/08/28 05:53:35;;;;;;;7.60;6.53;;;;;;;19.44;100.00;99619.34;4982897;28;20046;-89
2022/08/28 05:56:03;;;;;;;11.00;6.68;;;;;;;19.56;100.00;99625.75;4972412;28;20366;-85
2022/08/28 05:58:30;;;;;;;8.93;5.78;;;;;;;19.65;100.00;99621.94;4973189;28;20042;-84
2022/08/28 06:01:03;;;;;;;9.70;5.50;;;;;;;19.74;100.00;99624.50;4965745;28;20034;-85
2022/08/28 06:03:29;;;;;;;10.10;6.20;;;;;;;19.65;100.00;99621.94;4964607;28;20058;-82
2022/08/28 06:05:54;;;;;;;10.13;6.13;;;;;;;19.74;100.00;99630.88;4990089;28;20133;-82
2022/08/28 06:08:22;;;;;;;8.70;6.00;;;;;;;19.88;100.00;99640.38;4990441;28;20061;-82
2022/08/28 06:10:48;;;;;;;6.50;5.55;;;;;;;20.01;100.00;99637.84;4990497;28;20414;-83
2022/08/28 06:13:13;;;;;;;6.78;5.85;;;;;;;20.13;100.00;99638.59;4990654;28;20036;-83
2022/08/28 06:15:43;;;;;;;8.50;5.43;;;;;;;20.21;100.00;99646.03;4990862;28;20057;-83
2022/08/28 06:18:09;;;;;;;5.97;4.90;;;;;;;20.04;100.00;99642.44;4972873;28;20532;-83
2022/08/28 06:20:37;;;;;;;5.85;4.78;;;;;;;20.06;100.00;99634.22;4990951;28;20034;-83
2022/08/28 06:23:02;;;;;;;6.03;4.95;;;;;;;20.08;100.00;99645.75;4971880;28;20050;-83
2022/08/28 06:25:28;;;;;;;7.78;5.40;;;;;;;20.06;100.00;99653.19;4997392;23;20134;-84
2022/08/28 06:27:53;;;;;;;8.15;5.25;;;;;;;20.13;100.00;99644.22;4971586;28;20042;-85
2022/08/28 06:30:19;;;;;;;7.22;5.15;;;;;;;20.13;100.00;99655.50;4954089;28;20421;-85
2022/08/28 06:32:46;;;;;;;8.77;5.50;;;;;;;20.22;100.00;99655.25;4970709;28;20057;-85
2022/08/28 06:35:12;;;;;;;7.25;5.47;;;;;;;20.09;100.00;99658.56;4953275;28;20129;-85
2022/08/28 06:37:37;;;;;;;6.10;4.97;;;;;;;20.15;100.00;99659.31;4970392;28;20127;-85
2022/08/28 06:40:03;;;;;;;12.15;5.25;;;;;;;20.23;100.00;99662.41;4968659;28;20042;-85
2022/08/28 06:42:30;;;;;;;6.40;4.75;;;;;;;20.26;100.00;99659.31;4971948;28;20035;-85
2022/08/28 06:44:56;;;;;;;6.88;5.50;;;;;;;20.36;100.00;99662.69;4967775;28;20034;-85
2022/08/28 06:47:21;;;;;;;6.28;4.55;;;;;;;20.46;100.00;99659.06;4953032;28;20584;-85
2022/08/28 06:49:47;;;;;;;8.70;5.25;;;;;;;20.55;100.00;99655.22;4953364;28;20042;-86
2022/08/28 06:52:12;;;;;;;5.90;4.82;;;;;;;20.69;100.00;99656.22;4970158;28;20102;-85
2022/08/28 06:54:38;;;;;;;6.72;4.80;;;;;;;20.62;100.00;99662.41;4968148;28;20039;-85
2022/08/28 06:57:03;;;;;;;6.13;4.55;;;;;;;20.64;100.00;99657.00;4952841;28;20043;-85
2022/08/28 06:59:29;;;;;;;8.13;4.65;;;;;;;20.78;100.00;99656.72;4969696;28;20518;-84
2022/08/28 07:01:54;;;;;;;8.82;4.63;;;;;;;21.04;100.00;99653.56;4946656;28;20081;-85
2022/08/28 07:04:20;;;;;;;8.93;4.78;;;;;;;21.17;100.00;99648.16;4950379;28;20054;-85
2022/08/28 07:06:48;;;;;;;6.70;4.75;;;;;;;21.32;100.00;99659.88;4950627;29;20582;-85
2022/08/28 07:09:14;;;;;;;7.72;5.03;;;;;;;21.67;100.00;99672.53;4950039;29;20039;-85
2022/08/28 07:11:40;;;;;;;5.93;4.32;;;;;;;21.70;100.00;99660.97;4950558;29;20106;-85
2022/08/28 07:14:06;;;;;;;7.07;4.75;;;;;;;21.61;100.00;99671.78;4949294;29;20039;-84
2022/08/28 07:16:34;;;;;;;7.75;4.38;;;;;;;21.72;100.00;99666.06;4933381;29;20174;-84
2022/08/28 07:19:03;;;;;;;6.78;4.53;;;;;;;21.79;100.00;99671.16;4950454;29;20063;-85
2022/08/28 07:21:29;;;;;;;6.60;4.30;;;;;;;21.99;100.00;99673.63;4951136;28;20061;-85
2022/08/28 07:23:55;;;;;;;5.65;4.45;;;;;;;21.88;100.00;99679.31;4934529;29;20376;-85
2022/08/28 07:26:22;;;;;;;6.15;4.47;;;;;;;21.92;100.00;99671.34;4951405;28;20070;-85
2022/08/28 07:28:49;;;;;;;7.05;4.57;;;;;;;21.92;100.00;99674.16;4953014;28;20070;-85
2022/08/28 07:31:19;;;;;;;6.80;4.47;;;;;;;22.07;100.00;99666.13;4954052;29;20087;-85
2022/08/28 07:33:45;;;;;;;6.50;4.40;;;;;;;22.16;100.00;99665.78;4973433;29;20111;-84
2022/08/28 07:36:16;;;;;;;7.13;4.75;;;;;;;22.38;100.00;99669.72;4943609;29;20088;-85
2022/08/28 07:38:42;;;;;;;7.97;4.68;;;;;;;22.22;100.00;99674.97;4952555;28;20047;-85
2022/08/28 07:41:19;;;;;;;8.40;4.63;;;;;;;22.45;100.00;99674.78;4954266;29;20043;-85
2022/08/28 07:46:30;;;;;;;7.22;4.97;;;;;;;22.71;100.00;99680.72;4953966;28;20039;-85
2022/08/28 07:48:57;;;;;;;5.97;4.38;;;;;;;22.68;100.00;99684.59;4936785;29;20403;-85
2022/08/28 07:51:24;;;;;;;6.63;4.60;;;;;;;22.68;100.00;99682.56;4936800;29;20392;-85
2022/08/28 07:53:52;;;;;;;5.28;4.25;;;;;;;22.84;100.00;99695.00;4936315;29;20035;-85
2022/08/28 07:56:18;;;;;;;7.10;4.90;;;;;;;23.02;100.00;99685.78;4936618;29;20079;-85
2022/08/28 07:58:44;;;;;;;6.55;4.97;;;;;;;22.98;100.00;99671.19;4936093;29;20469;-85
2022/08/28 08:01:10;;;;;;;6.05;4.90;;;;;;;22.73;100.00;99683.78;4936401;29;20082;-85
2022/08/28 08:03:36;;;;;;;7.18;4.68;;;;;;;22.44;100.00;99679.69;4953557;28;20101;-85
2022/08/28 08:06:03;;;;;;;7.22;4.60;;;;;;;22.54;100.00;99695.00;4953967;29;20078;-85
2022/08/28 08:08:30;;;;;;;7.53;4.60;;;;;;;22.78;100.00;99688.63;4954039;29;20039;-85
2022/08/28 08:11:01;;;;;;;5.47;4.32;;;;;;;22.91;100.00;99688.75;4954254;28;20134;-85
2022/08/28 08:13:28;;;;;;;7.55;5.30;;;;;;;22.77;100.00;99689.91;4952492;28;20402;-85
2022/08/28 08:15:59;;;;;;;5.80;4.68;;;;;;;22.86;100.00;99686.72;4954293;29;20157;-86
2022/08/28 08:18:24;;;;;;;7.10;4.80;;;;;;;22.93;100.00;99691.06;4959122;28;20039;-84
2022/08/28 08:20:50;;;;;;;7.55;5.13;;;;;;;23.06;100.00;99683.44;4952775;29;20491;-86
2022/08/28 08:23:16;;;;;;;6.13;4.60;;;;;;;22.68;100.00;99684.59;4937254;28;20095;-85
2022/08/28 08:25:53;;;;;;;6.55;4.78;;;;;;;23.22;100.00;99684.53;4953113;28;20043;-85
2022/08/28 08:28:19;;;;;;;5.70;4.32;;;;;;;23.67;100.00;99679.06;4966336;28;20047;-85
2022/08/28 08:30:45;;;;;;;6.20;4.18;;;;;;;24.05;96.95;99680.56;4953552;29;20098;-85
2022/08/28 08:33:11;;;;;;;6.10;4.20;;;;;;;24.27;94.76;99681.53;4953650;29;20055;-85
2022/08/28 08:35:37;;;;;;;5.47;3.75;;;;;;;24.20;93.50;99687.84;4953235;28;20067;-85
2022/08/28 08:38:02;;;;;;;9.45;4.53;;;;;;;23.54;96.63;99687.47;4952192;28;20067;-85
2022/08/28 08:40:28;;;;;;;5.18;4.25;;;;;;;23.77;97.03;99688.72;4952753;29;20549;-85
2022/08/28 08:42:55;;;;;;;6.32;4.15;;;;;;;23.90;94.99;99697.28;4953432;28;20254;-85
2022/08/28 08:45:25;;;;;;;6.50;4.30;;;;;;;24.23;93.85;99689.59;4952717;28;21188;-85
2022/08/28 08:47:52;;;;;;;4.88;4.20;;;;;;;24.04;91.17;99696.03;4950143;28;20030;-85
2022/08/28 08:50:20;;;;;;;5.80;3.83;;;;;;;24.20;93.87;99691.44;4935907;29;20522;-86
2022/08/28 08:53:11;;;;;;;9.50;4.28;;;;;;;24.18;94.09;99698.97;4951101;29;20043;-85
2022/08/28 08:55:51;;;;;;;5.57;4.30;;;;;;;24.46;92.03;99696.44;4950544;28;20066;-85
2022/08/28 08:58:26;;;;;;;6.13;3.90;;;;;;;24.46;92.54;99696.44;4966589;28;20050;-85
2022/08/28 09:01:03;;;;;;;6.82;4.10;;;;;;;24.48;90.74;99699.47;4952248;29;20045;-85
2022/08/28 09:03:56;;;;;;;7.20;4.30;;;;;;;24.63;89.82;99709.00;4972697;28;20577;-85
2022/08/28 09:06:43;;;;;;;5.70;3.85;;;;;;;24.46;89.93;99708.53;4952146;28;20094;-85
2022/08/28 09:09:36;;;;;;;6.47;4.13;;;;;;;24.64;90.75;99701.25;4973130;28;20106;-84
2022/08/28 09:12:16;;;;;;;5.60;3.55;;;;;;;24.85;88.15;99715.63;4964050;28;20514;-83
2022/08/28 09:15:04;;;;;;;9.00;3.80;;;;;;;24.82;87.04;99706.09;4957800;28;20091;-83
2022/08/28 09:17:51;;;;;;;5.63;3.90;;;;;;;24.79;88.49;99714.94;4950886;28;20118;-83
2022/08/28 09:20:23;;;;;;;4.63;3.72;;;;;;;24.92;87.93;99707.22;4950476;28;20054;-83
2022/08/28 09:22:48;;;;;;;5.43;3.65;;;;;;;25.00;87.75;99701.66;4948763;28;20051;-83
2022/08/28 09:25:43;;;;;;;5.88;3.88;;;;;;;24.92;89.12;99704.38;4951966;28;20051;-83
2022/08/28 09:28:10;;;;;;;4.90;3.80;;;;;;;24.97;86.57;99706.34;4964599;28;20067;-83
2022/08/28 09:30:36;;;;;;;5.28;3.75;;;;;;;25.27;87.05;99699.59;4949191;28;20039;-83
2022/08/28 09:33:02;;;;;;;5.10;3.55;;;;;;;25.23;83.89;99699.16;4950968;29;20821;-83
2022/08/28 09:35:30;;;;;;;5.25;3.58;;;;;;;25.32;85.70;99699.47;4958762;28;20074;-83
2022/08/28 09:38:19;;;;;;;5.25;3.72;;;;;;;25.75;84.84;99687.72;4951152;29;20078;-83
2022/08/28 09:43:30;;;;;;;3.63;2.90;;;;;;;26.08;71.24;99685.44;4965453;28;20082;-83
2022/08/28 09:46:01;;;;;;;4.18;3.10;;;;;;;26.15;67.03;99696.88;4950846;28;20039;-83
2022/08/28 09:48:39;;;;;;;4.53;3.00;;;;;;;26.26;68.66;99701.53;4949754;28;20055;-82
2022/08/28 09:51:10;;;;;;;3.83;2.72;;;;;;;26.67;69.77;99695.84;4949313;28;20047;-81
2022/08/28 09:53:52;;;;;;;4.10;3.00;;;;;;;26.71;69.91;99701.94;4949349;28;20128;-83
2022/08/28 09:56:23;;;;;;;7.67;3.57;;;;;;;26.93;71.03;99705.56;4948102;28;20039;-81
2022/08/28 09:58:52;;;;;;;5.00;3.40;;;;;;;27.15;72.81;99693.53;4943539;28;20073;-83
2022/08/28 10:01:32;;;;;;;6.55;3.50;;;;;;;27.60;74.73;99696.66;4949835;28;20054;-83
2022/08/28 10:04:14;;;;;;;3.95;3.17;;;;;;;27.92;66.42;99696.19;4953118;28;20074;-83
2022/08/28 10:06:43;;;;;;;4.85;2.95;;;;;;;27.68;68.83;99699.53;4952899;28;20054;-83
2022/08/28 10:09:08;;;;;;;4.30;3.25;;;;;;;27.47;70.48;99696.00;4958048;28;20125;-83
2022/08/28 10:11:41;;;;;;;4.15;3.15;;;;;;;27.76;70.12;99695.38;4949587;28;20071;-83
2022/08/28 10:14:22;;;;;;;5.00;2.90;;;;;;;28.11;66.75;99690.16;4966271;28;20043;-83
2022/08/28 10:16:56;;;;;;;3.63;2.70;;;;;;;27.67;63.01;99695.13;4948895;28;20114;-83
2022/08/28 10:19:33;;;;;;;3.25;2.50;;;;;;;27.38;65.35;99689.47;4950320;28;20054;-83
2022/08/28 10:22:33;;;;;;;3.33;2.53;;;;;;;27.60;63.56;99682.41;4949671;28;20057;-83
2022/08/28 10:25:18;;;;;;;3.58;2.40;;;;;;;27.55;62.08;99689.03;4949660;28;20043;-83
2022/08/28 10:27:57;;;;;;;3.10;2.13;;;;;;;27.99;60.63;99689.72;4959542;28;20066;-83
2022/08/28 10:30:23;;;;;;;3.97;2.30;;;;;;;27.69;62.86;99693.28;4932505;29;20047;-83
2022/08/28 10:33:10;;;;;;;3.47;2.13;;;;;;;27.80;59.41;99683.59;4948966;28;20051;-82
2022/08/28 10:35:53;;;;;;;4.90;2.60;;;;;;;27.99;61.78;99681.19;4957460;28;20502;-83
2022/08/28 10:38:26;;;;;;;4.03;2.70;;;;;;;27.78;60.90;99684.16;4964231;28;20047;-83
2022/08/28 10:41:02;;;;;;;;;;;;;;;27.82;63.28;99676.00;4950494;29;20066;-82
2022/08/28 10:43:34;;;;;;;4.57;2.85;;;;;;;27.89;64.24;99682.31;4948147;28;19969;-82
2022/08/28 10:46:03;;;;;;;4.28;2.60;;;;;;;28.11;63.48;99678.75;4948243;28;20039;-83
2022/08/28 10:48:36;;;;;;;4.07;2.90;;;;;;;27.79;65.62;99677.13;4948065;28;20069;-82
2022/08/28 10:51:06;;;;;;;4.55;2.80;;;;;;;27.76;64.55;99674.66;4949740;28;20039;-83
2022/08/28 10:53:37;;;;;;;3.85;2.97;;;;;;;28.03;64.28;99660.84;4945848;28;20146;-82
2022/08/28 10:56:25;;;;;;;3.38;2.60;;;;;;;27.95;63.23;99674.31;4947392;28;20047;-82
2022/08/28 10:58:55;;;;;;;3.28;2.80;;;;;;;28.40;62.71;99670.78;4948462;28;20479;-83
2022/08/28 11:01:28;;;;;;;4.28;3.00;;;;;;;28.40;63.04;99677.28;4948373;28;20549;-83
2022/08/28 11:03:57;;;;;;;9.85;3.05;;;;;;;28.52;62.61;99671.94;4947978;28;20109;-82
2022/08/28 11:06:45;;;;;;;3.45;2.63;;;;;;;28.69;62.74;99672.91;4975134;23;20029;-84
2022/08/28 11:09:26;;;;;;;3.55;2.80;;;;;;;29.00;63.93;99672.88;4970424;28;20448;-85
2022/08/28 11:12:01;;;;;;;3.80;2.92;;;;;;;28.76;62.41;99667.75;4988438;28;20040;-84
2022/08/28 11:14:36;;;;;;;4.53;2.53;;;;;;;29.06;59.68;99664.88;4969925;28;20417;-85
2022/08/28 11:17:07;;;;;;;4.28;2.67;;;;;;;29.39;57.58;99666.50;4970324;28;20489;-85
2022/08/28 11:19:55;;;;;;;4.18;2.70;;;;;;;29.60;57.04;99664.13;4973093;28;20549;-85
2022/08/28 11:22:35;;;;;;;2.95;2.65;;;;;;;29.87;57.47;99669.34;4983836;28;20039;-85
2022/08/28 11:25:05;;;;;;;4.15;2.50;;;;;;;29.89;54.95;99667.44;4969689;28;20500;-85
2022/08/28 11:27:34;;;;;;;4.68;2.80;;;;;;;29.90;52.01;99676.75;4989881;28;20039;-85
2022/08/28 11:30:05;;;;;;;3.05;2.58;;;;;;;29.86;45.91;99667.81;4968117;28;20054;-85
2022/08/28 11:32:30;;;;;;;4.35;2.50;;;;;;;29.93;46.78;99673.50;4987601;28;20039;-85
2022/08/28 11:35:02;;;;;;;3.63;2.60;;;;;;;30.28;48.76;99667.94;4987632;28;20384;-85
2022/08/28 11:37:44;;;;;;;2.88;2.55;;;;;;;30.45;46.73;99665.91;4987322;28;20465;-85
2022/08/28 11:40:29;;;;;;;2.97;2.63;;;;;;;30.31;47.84;99658.94;4987529;28;20042;-85
2022/08/28 11:43:13;;;;;;;4.65;2.80;;;;;;;30.21;46.49;99658.06;4988364;28;20506;-85
2022/08/28 11:45:41;;;;;;;4.32;2.60;;;;;;;30.44;50.07;99652.19;4987023;28;20031;-85
2022/08/28 11:48:28;;;;;;;4.97;3.03;;;;;;;30.38;50.00;99651.63;4987931;28;20050;-85